createdAt,value
2022-11-05T00:01:54.823Z,9.90
2022-11-05T00:04:40.326Z,9.90
2022-11-05T00:07:36.296Z,9.90
2022-11-05T00:10:07.879Z,10.00
2022-11-05T00:12:53.336Z,10.00
2022-11-05T00:15:38.822Z,10.00
2022-11-05T00:18:05.546Z,9.90
2022-11-05T00:20:32.248Z,10.00
2022-11-05T00:23:24.538Z,9.90
2022-11-05T00:26:06.273Z,10.00
2022-11-05T00:28:33.686Z,10.00
2022-11-05T00:31:02.343Z,10.00
2022-11-05T00:33:29.210Z,10.00
2022-11-05T00:35:55.955Z,10.00
2022-11-05T00:38:22.876Z,10.00
2022-11-05T00:40:49.576Z,10.00
2022-11-05T00:43:35.022Z,10.00
2022-11-05T00:46:01.744Z,10.00
2022-11-05T00:48:46.947Z,10.00
2022-11-05T00:51:13.651Z,10.00
2022-11-05T00:53:40.351Z,10.00
2022-11-05T00:56:07.376Z,10.00
2022-11-05T00:58:34.094Z,9.90
2022-11-05T01:01:01.987Z,9.90
2022-11-05T01:03:39.725Z,9.80
2022-11-05T01:06:12.761Z,9.80
2022-11-05T01:08:41.188Z,9.70
2022-11-05T01:11:32.825Z,9.70
2022-11-05T01:14:05.139Z,9.70
2022-11-05T01:16:32.288Z,9.80
2022-11-05T01:18:59.002Z,9.80
2022-11-05T01:21:25.792Z,9.80
2022-11-05T01:23:53.096Z,9.90
2022-11-05T01:26:20.081Z,9.80
2022-11-05T01:28:51.886Z,9.80
2022-11-05T01:31:18.760Z,9.80
2022-11-05T01:33:45.494Z,9.70
2022-11-05T01:36:12.342Z,9.70
2022-11-05T01:38:39.160Z,9.60
2022-11-05T01:41:06.046Z,9.50
2022-11-05T01:43:51.344Z,9.50
2022-11-05T01:46:31.463Z,9.40
2022-11-05T01:49:05.964Z,9.40
2022-11-05T01:51:33.011Z,9.30
2022-11-05T01:54:10.152Z,9.30
2022-11-05T01:56:43.659Z,9.30
2022-11-05T01:59:26.035Z,9.30
2022-11-05T02:01:54.812Z,9.30
2022-11-05T02:04:32.040Z,9.30
2022-11-05T02:06:59.453Z,9.20
2022-11-05T02:09:34.682Z,9.20
2022-11-05T02:12:01.946Z,9.20
2022-11-05T02:14:28.643Z,9.20
2022-11-05T02:17:11.019Z,9.20
2022-11-05T02:20:14.441Z,9.10
2022-11-05T02:22:50.192Z,9.10
2022-11-05T02:25:34.839Z,9.00
2022-11-05T02:28:38.515Z,8.90
2022-11-05T02:31:26.445Z,8.90
2022-11-05T02:34:08.650Z,8.90
2022-11-05T02:36:43.333Z,8.90
2022-11-05T02:39:15.848Z,8.80
2022-11-05T02:41:45.316Z,8.80
2022-11-05T02:44:41.171Z,8.80
2022-11-05T02:47:33.239Z,8.80
2022-11-05T02:50:24.930Z,8.80
2022-11-05T02:53:00.542Z,8.90
2022-11-05T02:55:53.818Z,8.90
2022-11-05T02:58:21.285Z,9.00
2022-11-05T03:00:55.996Z,9.00
2022-11-05T03:03:42.039Z,9.00
2022-11-05T03:06:39.216Z,9.10
2022-11-05T03:09:05.779Z,9.10
2022-11-05T03:11:41.250Z,9.20
2022-11-05T03:14:17.822Z,9.20
2022-11-05T03:16:52.010Z,9.20
2022-11-05T03:19:27.497Z,9.20
2022-11-05T03:22:08.307Z,9.20
2022-11-05T03:24:39.634Z,9.20
2022-11-05T03:27:10.847Z,9.10
2022-11-05T03:29:51.974Z,9.10
2022-11-05T03:32:20.780Z,9.10
2022-11-05T03:34:52.993Z,9.10
2022-11-05T03:37:22.546Z,9.10
2022-11-05T03:39:54.137Z,9.00
2022-11-05T03:42:25.767Z,9.00
2022-11-05T03:44:57.028Z,9.10
2022-11-05T03:47:29.843Z,9.00
2022-11-05T03:50:07.626Z,9.00
2022-11-05T03:52:51.238Z,9.10
2022-11-05T03:55:18.155Z,9.10
2022-11-05T03:57:49.529Z,9.20
2022-11-05T04:00:16.932Z,9.10
2022-11-05T04:02:43.739Z,9.10
2022-11-05T04:05:10.760Z,9.10
2022-11-05T04:07:56.302Z,9.10
2022-11-05T04:10:41.682Z,9.20
2022-11-05T04:13:26.480Z,9.10
2022-11-05T04:16:13.253Z,9.10
2022-11-05T04:18:40.610Z,9.10
2022-11-05T04:21:26.533Z,9.10
2022-11-05T04:24:08.647Z,9.10
2022-11-05T04:26:41.370Z,9.20
2022-11-05T04:29:26.953Z,9.20
2022-11-05T04:31:53.707Z,9.20
2022-11-05T04:34:22.191Z,9.30
2022-11-05T04:36:53.386Z,9.20
2022-11-05T04:39:21.138Z,9.10
2022-11-05T04:41:48.746Z,9.10
2022-11-05T04:44:16.954Z,9.00
2022-11-05T04:46:43.691Z,9.00
2022-11-05T04:49:10.477Z,9.00
2022-11-05T04:51:38.300Z,8.90
2022-11-05T04:54:05.059Z,8.90
2022-11-05T04:56:32.027Z,8.90
2022-11-05T04:58:58.781Z,8.90
2022-11-05T05:01:25.855Z,9.00
2022-11-05T05:03:54.307Z,9.00
2022-11-05T05:06:21.898Z,9.00
2022-11-05T05:08:50.204Z,9.00
2022-11-05T05:11:19.630Z,9.00
2022-11-05T05:13:46.528Z,9.00
2022-11-05T05:16:21.151Z,9.00
2022-11-05T05:18:48.860Z,9.00
2022-11-05T05:21:35.844Z,9.10
2022-11-05T05:24:02.952Z,9.10
2022-11-05T05:26:29.995Z,9.10
2022-11-05T05:28:57.189Z,9.10
2022-11-05T05:31:24.082Z,9.20
2022-11-05T05:33:54.331Z,9.30
2022-11-05T05:36:21.670Z,9.30
2022-11-05T05:38:48.750Z,9.30
2022-11-05T05:41:15.726Z,9.40
2022-11-05T05:43:42.603Z,9.40
2022-11-05T05:46:13.072Z,9.40
2022-11-05T05:48:39.895Z,9.40
2022-11-05T05:51:09.779Z,9.40
2022-11-05T05:53:37.386Z,9.40
2022-11-05T05:56:05.047Z,9.40
2022-11-05T05:58:34.924Z,9.40
2022-11-05T06:01:07.963Z,9.50
2022-11-05T06:03:35.236Z,9.50
2022-11-05T06:06:09.125Z,9.50
2022-11-05T06:08:36.385Z,9.50
2022-11-05T06:11:04.865Z,9.50
2022-11-05T06:13:32.142Z,9.50
2022-11-05T06:16:06.275Z,9.50
2022-11-05T06:18:33.811Z,9.50
2022-11-05T06:21:11.900Z,9.50
2022-11-05T06:23:40.253Z,9.50
2022-11-05T06:26:13.283Z,9.50
2022-11-05T06:28:42.162Z,9.50
2022-11-05T06:31:10.271Z,9.50
2022-11-05T06:33:37.454Z,9.50
2022-11-05T06:36:06.254Z,9.60
2022-11-05T06:38:35.089Z,9.60
2022-11-05T06:41:07.232Z,9.60
2022-11-05T06:43:37.170Z,9.60
2022-11-05T06:46:04.025Z,9.60
2022-11-05T06:48:30.758Z,9.60
2022-11-05T06:50:57.963Z,9.60
2022-11-05T06:53:24.790Z,9.70
2022-11-05T06:55:51.466Z,9.70
2022-11-05T06:58:18.172Z,9.80
2022-11-05T07:00:45.336Z,9.80
2022-11-05T07:03:13.435Z,9.80
2022-11-05T07:05:51.104Z,9.70
2022-11-05T07:08:17.962Z,9.70
2022-11-05T07:10:44.783Z,9.70
2022-11-05T07:13:12.118Z,9.80
2022-11-05T07:15:39.116Z,9.80
2022-11-05T07:18:07.562Z,9.80
2022-11-05T07:20:34.789Z,9.80
2022-11-05T07:23:06.412Z,9.80
2022-11-05T07:25:34.632Z,9.70
2022-11-05T07:28:02.237Z,9.70
2022-11-05T07:30:29.918Z,9.70
2022-11-05T07:32:57.183Z,9.80
2022-11-05T07:35:24.593Z,9.80
2022-11-05T07:37:55.956Z,9.70
2022-11-05T07:40:25.246Z,9.70
2022-11-05T07:42:54.057Z,9.80
2022-11-05T07:45:21.131Z,9.80
2022-11-05T07:48:00.445Z,9.80
2022-11-05T07:50:30.151Z,9.80
2022-11-05T07:53:02.279Z,9.80
2022-11-05T07:55:29.420Z,9.80
2022-11-05T07:57:56.102Z,9.80
2022-11-05T08:00:24.926Z,9.90
2022-11-05T08:03:08.237Z,9.90
2022-11-05T08:05:37.900Z,10.00
2022-11-05T08:08:06.204Z,10.20
2022-11-05T08:10:34.181Z,10.30
2022-11-05T08:13:01.104Z,10.40
2022-11-05T08:15:27.863Z,10.50
2022-11-05T08:17:59.222Z,10.50
2022-11-05T08:20:26.409Z,10.60
2022-11-05T08:22:54.313Z,10.70
2022-11-05T08:25:21.100Z,10.70
2022-11-05T08:27:48.586Z,10.70
2022-11-05T08:30:15.272Z,10.70
2022-11-05T08:32:41.962Z,10.80
2022-11-05T08:35:08.933Z,10.80
2022-11-05T08:37:35.679Z,10.80
2022-11-05T08:40:02.599Z,10.80
2022-11-05T08:42:29.376Z,10.90
2022-11-05T08:44:56.129Z,10.90
2022-11-05T08:47:22.813Z,10.90
2022-11-05T08:49:49.685Z,10.90
2022-11-05T08:52:16.532Z,10.90
2022-11-05T08:54:43.702Z,10.90
2022-11-05T08:57:10.428Z,10.90
2022-11-05T08:59:37.107Z,10.90
2022-11-05T09:02:04.007Z,11.00
2022-11-05T09:04:30.898Z,10.90
2022-11-05T09:06:57.571Z,11.00
2022-11-05T09:09:24.232Z,11.00
2022-11-05T09:12:11.155Z,11.10
2022-11-05T09:14:38.378Z,11.20
2022-11-05T09:17:13.187Z,11.20
2022-11-05T09:19:40.246Z,11.30
2022-11-05T09:22:07.021Z,11.30
2022-11-05T09:24:33.708Z,11.30
2022-11-05T09:27:00.417Z,11.40
2022-11-05T09:29:27.096Z,11.50
2022-11-05T09:31:54.049Z,11.60
2022-11-05T09:34:20.708Z,11.60
2022-11-05T09:36:47.397Z,11.70
2022-11-05T09:39:14.227Z,11.70
2022-11-05T09:41:43.412Z,11.70
2022-11-05T09:44:21.670Z,11.90
2022-11-05T09:46:51.305Z,12.00
2022-11-05T09:49:35.171Z,12.00
2022-11-05T09:52:02.299Z,12.00
2022-11-05T09:54:34.118Z,12.00
2022-11-05T09:57:03.231Z,12.00
2022-11-05T09:59:39.410Z,12.00
2022-11-05T10:02:12.940Z,11.90
2022-11-05T10:04:41.818Z,11.90
2022-11-05T10:07:15.824Z,12.00
2022-11-05T10:09:47.754Z,12.10
2022-11-05T10:12:28.645Z,12.20
2022-11-05T10:15:16.652Z,12.10
2022-11-05T10:17:50.957Z,12.10
2022-11-05T10:20:24.611Z,12.10
2022-11-05T10:22:58.359Z,12.20
2022-11-05T10:25:31.463Z,12.20
2022-11-05T10:27:59.513Z,12.20
2022-11-05T10:30:26.207Z,12.30
2022-11-05T10:32:58.359Z,12.40
2022-11-05T10:35:29.060Z,12.50
2022-11-05T10:37:57.013Z,12.60
2022-11-05T10:40:41.265Z,12.60
2022-11-05T10:43:20.408Z,12.70
2022-11-05T10:46:16.225Z,12.70
2022-11-05T10:48:51.576Z,12.70
2022-11-05T10:51:18.986Z,12.80
2022-11-05T10:54:01.972Z,12.90
2022-11-05T10:56:30.359Z,12.90
2022-11-05T10:58:59.293Z,12.90
2022-11-05T11:01:26.494Z,13.00
2022-11-05T11:04:15.228Z,13.10
2022-11-05T11:06:48.517Z,13.10
2022-11-05T11:09:31.536Z,13.10
2022-11-05T11:12:12.353Z,13.20
2022-11-05T11:14:39.744Z,13.30
2022-11-05T11:17:26.565Z,13.50
2022-11-05T11:20:19.858Z,13.60
2022-11-05T11:23:03.106Z,13.70
2022-11-05T11:25:53.283Z,13.80
2022-11-05T11:28:26.497Z,13.90
2022-11-05T11:31:03.503Z,13.90
2022-11-05T11:33:31.713Z,13.90
2022-11-05T11:35:59.249Z,14.20
2022-11-05T11:38:33.994Z,14.20
2022-11-05T11:41:08.090Z,14.00
2022-11-05T11:43:37.413Z,13.90
2022-11-05T11:46:09.918Z,13.80
2022-11-05T11:48:41.080Z,14.00
2022-11-05T11:51:31.083Z,14.10
2022-11-05T11:54:00.253Z,14.00
2022-11-05T11:56:27.609Z,14.10
2022-11-05T11:58:57.162Z,14.30
2022-11-05T12:01:42.511Z,14.30
2022-11-05T12:04:38.426Z,14.20
2022-11-05T12:07:05.064Z,14.20
2022-11-05T12:10:05.552Z,14.20
2022-11-05T12:13:07.476Z,14.40
2022-11-05T12:15:41.682Z,14.40
2022-11-05T12:18:26.188Z,14.30
2022-11-05T12:20:58.385Z,14.20
2022-11-05T12:23:34.771Z,14.10
2022-11-05T12:26:07.553Z,13.90
2022-11-05T12:29:19.315Z,13.80
2022-11-05T12:31:54.238Z,13.80
2022-11-05T12:34:56.211Z,13.70
2022-11-05T12:37:50.565Z,13.70
2022-11-05T12:40:35.612Z,13.60
2022-11-05T12:43:17.732Z,13.60
2022-11-05T12:46:34.001Z,13.60
2022-11-05T12:49:03.659Z,13.60
2022-11-05T12:51:45.047Z,13.60
2022-11-05T12:54:11.671Z,13.70
2022-11-05T12:56:49.986Z,13.80
2022-11-05T12:59:34.727Z,13.80
2022-11-05T13:02:15.768Z,13.80
2022-11-05T13:05:05.955Z,13.70
2022-11-05T13:07:40.301Z,13.70
2022-11-05T13:10:39.091Z,13.70
2022-11-05T13:13:24.413Z,13.70
2022-11-05T13:16:03.314Z,13.70
2022-11-05T13:18:49.247Z,13.70
2022-11-05T13:21:19.050Z,13.70
2022-11-05T13:24:10.083Z,13.60
2022-11-05T13:26:50.938Z,13.70
2022-11-05T13:29:25.423Z,13.80
2022-11-05T13:31:58.195Z,13.90
2022-11-05T13:34:25.024Z,14.00
2022-11-05T13:37:30.003Z,14.00
2022-11-05T13:40:02.223Z,14.10
2022-11-05T13:42:46.767Z,14.10
2022-11-05T13:45:31.710Z,14.20
2022-11-05T13:48:30.796Z,14.20
2022-11-05T13:51:18.617Z,14.20
2022-11-05T13:54:03.183Z,14.10
2022-11-05T13:56:54.054Z,13.90
2022-11-05T13:59:20.696Z,13.80
2022-11-05T14:02:04.553Z,13.60
2022-11-05T14:04:44.594Z,13.60
2022-11-05T14:07:15.362Z,13.50
2022-11-05T14:09:43.973Z,13.40
2022-11-05T14:12:21.603Z,13.30
2022-11-05T14:14:58.453Z,13.20
2022-11-05T14:17:35.501Z,13.10
2022-11-05T14:20:04.879Z,13.10
2022-11-05T14:22:31.538Z,13.10
2022-11-05T14:25:00.016Z,13.10
2022-11-05T14:27:29.534Z,13.00
2022-11-05T14:29:56.354Z,13.00
2022-11-05T14:32:25.983Z,13.00
2022-11-05T14:35:15.490Z,12.90
2022-11-05T14:37:54.823Z,12.90
2022-11-05T14:40:21.481Z,12.90
2022-11-05T14:43:01.534Z,12.80
2022-11-05T14:45:55.950Z,12.80
2022-11-05T14:48:43.191Z,12.80
2022-11-05T14:51:30.083Z,12.80
2022-11-05T14:54:06.046Z,12.80
2022-11-05T14:56:57.506Z,12.70
2022-11-05T14:59:24.244Z,12.70
2022-11-05T15:01:53.818Z,12.70
2022-11-05T15:04:32.219Z,12.70
2022-11-05T15:07:22.137Z,12.70
2022-11-05T15:10:03.196Z,12.60
2022-11-05T15:12:52.135Z,12.60
2022-11-05T15:15:28.002Z,12.60
2022-11-05T15:17:58.260Z,12.50
2022-11-05T15:20:40.013Z,12.50
2022-11-05T15:23:11.136Z,12.50
2022-11-05T15:25:45.862Z,12.40
2022-11-05T15:28:33.142Z,12.40
2022-11-05T15:31:03.640Z,12.40
2022-11-05T15:33:31.515Z,12.40
2022-11-05T15:36:11.755Z,12.40
2022-11-05T15:38:51.968Z,12.40
2022-11-05T15:41:33.730Z,12.30
2022-11-05T15:44:02.155Z,12.20
2022-11-05T15:46:29.430Z,12.20
2022-11-05T15:49:07.237Z,12.10
2022-11-05T15:51:35.526Z,12.10
2022-11-05T15:56:55.540Z,12.00
2022-11-05T15:59:24.378Z,12.00
2022-11-05T16:02:02.031Z,11.90
2022-11-05T16:04:34.440Z,11.90
2022-11-05T16:07:08.967Z,11.80
2022-11-05T16:09:38.570Z,11.80
2022-11-05T16:12:20.346Z,11.80
2022-11-05T16:15:04.267Z,11.80
2022-11-05T16:17:53.364Z,11.80
2022-11-05T16:20:24.611Z,11.80
2022-11-05T16:23:00.296Z,11.70
2022-11-05T16:25:39.889Z,11.70
2022-11-05T16:28:20.436Z,11.70
2022-11-05T16:30:54.456Z,11.70
2022-11-05T16:33:21.456Z,11.60
2022-11-05T16:35:49.629Z,11.60
2022-11-05T16:38:17.767Z,11.70
2022-11-05T16:40:44.870Z,11.60
2022-11-05T16:43:25.261Z,11.60
2022-11-05T16:45:57.688Z,11.60
2022-11-05T16:48:25.470Z,11.60
2022-11-05T16:50:52.299Z,11.60
2022-11-05T16:53:19.076Z,11.60
2022-11-05T16:55:46.520Z,11.60
2022-11-05T16:58:23.163Z,11.60
2022-11-05T17:00:51.683Z,11.60
2022-11-05T17:03:18.455Z,11.50
2022-11-05T17:05:45.506Z,11.50
2022-11-05T17:08:12.541Z,11.50
2022-11-05T17:10:39.382Z,11.50
2022-11-05T17:13:06.126Z,11.50
2022-11-05T17:15:36.837Z,11.50
2022-11-05T17:18:05.461Z,11.50
2022-11-05T17:20:40.684Z,11.40
2022-11-05T17:23:14.063Z,11.40
2022-11-05T17:25:43.248Z,11.40
2022-11-05T17:28:11.372Z,11.40
2022-11-05T17:30:41.374Z,11.30
2022-11-05T17:33:09.611Z,11.30
2022-11-05T17:35:39.415Z,11.30
2022-11-05T17:38:06.142Z,11.20
2022-11-05T17:40:34.530Z,11.10
2022-11-05T17:43:01.386Z,11.10
2022-11-05T17:45:28.351Z,11.10
2022-11-05T17:47:55.215Z,11.10
2022-11-05T17:50:22.093Z,11.10
2022-11-05T17:52:48.947Z,11.00
2022-11-05T17:55:18.480Z,11.00
2022-11-05T17:57:47.473Z,11.00
2022-11-05T18:00:17.382Z,11.00
2022-11-05T18:02:44.464Z,11.00
2022-11-05T18:05:12.274Z,11.00
2022-11-05T18:07:38.975Z,11.00
2022-11-05T18:10:06.495Z,11.00
2022-11-05T18:12:34.043Z,11.00
2022-11-05T18:15:00.720Z,11.00
2022-11-05T18:17:27.375Z,11.00
2022-11-05T18:19:54.176Z,11.10
2022-11-05T18:22:20.929Z,11.10
2022-11-05T18:24:47.653Z,11.10
2022-11-05T18:27:14.867Z,11.10
2022-11-05T18:29:41.831Z,11.10
2022-11-05T18:32:08.595Z,11.10
2022-11-05T18:34:36.131Z,11.10
2022-11-05T18:37:02.867Z,11.10
2022-11-05T18:39:29.746Z,11.10
2022-11-05T18:41:56.503Z,11.10
2022-11-05T18:44:24.686Z,11.00
2022-11-05T18:46:58.245Z,11.00
2022-11-05T18:49:26.266Z,10.90
2022-11-05T18:51:53.002Z,10.90
2022-11-05T18:54:20.278Z,10.80
2022-11-05T18:56:47.048Z,10.80
2022-11-05T18:59:35.883Z,10.80
2022-11-05T19:02:02.859Z,10.70
2022-11-05T19:04:30.580Z,10.70
2022-11-05T19:07:01.667Z,10.70
2022-11-05T19:09:31.443Z,10.70
2022-11-05T19:11:58.274Z,10.80
2022-11-05T19:14:25.004Z,10.80
2022-11-05T19:16:51.881Z,10.80
2022-11-05T19:19:18.828Z,10.80
2022-11-05T19:21:45.805Z,10.70
2022-11-05T19:24:16.705Z,10.70
2022-11-05T19:26:44.142Z,10.70
2022-11-05T19:29:10.921Z,10.70
2022-11-05T19:31:37.766Z,10.60
2022-11-05T19:34:05.554Z,10.50
2022-11-05T19:36:33.055Z,10.50
2022-11-05T19:39:04.743Z,10.50
2022-11-05T19:41:31.495Z,10.40
2022-11-05T19:43:59.502Z,10.40
2022-11-05T19:46:26.371Z,10.40
2022-11-05T19:48:53.376Z,10.30
2022-11-05T19:51:25.937Z,10.20
2022-11-05T19:53:53.545Z,10.20
2022-11-05T19:56:23.118Z,10.20
2022-11-05T19:58:50.391Z,10.20
2022-11-05T20:01:18.864Z,10.10
2022-11-05T20:03:46.400Z,10.10
2022-11-05T20:06:28.694Z,10.10
2022-11-05T20:09:21.098Z,10.10
2022-11-05T20:11:48.723Z,10.10
2022-11-05T20:14:15.703Z,10.00
2022-11-05T20:16:42.795Z,10.00
2022-11-05T20:19:13.459Z,10.00
2022-11-05T20:21:40.230Z,10.00
2022-11-05T20:24:07.393Z,10.00
2022-11-05T20:26:34.798Z,10.00
2022-11-05T20:29:01.688Z,10.00
2022-11-05T20:31:29.054Z,9.90
2022-11-05T20:33:56.310Z,9.90
2022-11-05T20:36:24.598Z,9.90
2022-11-05T20:38:55.223Z,9.90
2022-11-05T20:41:22.414Z,9.80
2022-11-05T20:43:49.383Z,9.70
2022-11-05T20:46:19.116Z,9.60
2022-11-05T20:48:46.161Z,9.60
2022-11-05T20:51:15.829Z,9.50
2022-11-05T20:53:43.266Z,9.50
2022-11-05T20:56:21.124Z,9.40
2022-11-05T20:58:48.041Z,9.40
2022-11-05T21:01:16.562Z,9.40
2022-11-05T21:03:44.554Z,9.40
2022-11-05T21:06:12.554Z,9.30
2022-11-05T21:08:39.539Z,9.30
2022-11-05T21:11:07.359Z,9.30
2022-11-05T21:13:34.633Z,9.30
2022-11-05T21:16:02.039Z,9.30
2022-11-05T21:18:32.196Z,9.30
2022-11-05T21:21:02.386Z,9.30
2022-11-05T21:23:29.141Z,9.30
2022-11-05T21:25:56.127Z,9.30
2022-11-05T21:28:23.265Z,9.20
2022-11-05T21:30:50.134Z,9.10
2022-11-05T21:33:18.469Z,9.10
2022-11-05T21:35:47.709Z,9.00
2022-11-05T21:38:16.135Z,9.00
2022-11-05T21:40:43.615Z,8.90
2022-11-05T21:43:10.858Z,8.90
2022-11-05T21:45:42.394Z,8.80
2022-11-05T21:48:10.067Z,8.80
2022-11-05T21:50:59.076Z,8.80
2022-11-05T21:53:45.196Z,8.80
2022-11-05T21:56:39.345Z,8.80
2022-11-05T21:59:24.842Z,8.80
2022-11-05T22:02:01.267Z,8.80
2022-11-05T22:04:34.092Z,8.80
2022-11-05T22:07:01.110Z,8.70
2022-11-05T22:09:28.690Z,8.60
2022-11-05T22:11:56.164Z,8.50
2022-11-05T22:14:23.617Z,8.50
2022-11-05T22:16:50.555Z,8.50
2022-11-05T22:19:17.869Z,8.50
2022-11-05T22:21:44.599Z,8.50
2022-11-05T22:24:11.374Z,8.40
2022-11-05T22:26:38.847Z,8.40
2022-11-05T22:29:06.464Z,8.40
2022-11-05T22:31:36.195Z,8.30
2022-11-05T22:34:04.406Z,8.30
2022-11-05T22:36:31.955Z,8.30
2022-11-05T22:38:58.743Z,8.30
2022-11-05T22:41:25.548Z,8.30
2022-11-05T22:43:52.404Z,8.30
2022-11-05T22:46:22.230Z,8.30
2022-11-05T22:48:49.600Z,8.30
2022-11-05T22:51:22.085Z,8.30
2022-11-05T22:53:49.402Z,8.30
2022-11-05T22:56:18.945Z,8.20
2022-11-05T22:58:45.921Z,8.30
2022-11-05T23:01:13.985Z,8.20
2022-11-05T23:03:43.013Z,8.20
2022-11-05T23:06:37.034Z,8.10
2022-11-05T23:09:25.678Z,8.10
2022-11-05T23:11:53.878Z,8.20
2022-11-05T23:14:20.766Z,8.20
2022-11-05T23:17:06.095Z,8.10
2022-11-05T23:19:51.463Z,8.10
2022-11-05T23:22:39.431Z,8.00
2022-11-05T23:25:08.799Z,8.00
2022-11-05T23:27:37.651Z,8.00
2022-11-05T23:30:14.609Z,8.00
2022-11-05T23:32:41.297Z,8.00
2022-11-05T23:35:08.678Z,8.00
2022-11-05T23:37:54.026Z,8.10
2022-11-05T23:40:51.954Z,8.10
2022-11-05T23:43:36.968Z,8.20
2022-11-05T23:46:22.500Z,8.10
2022-11-05T23:48:50.615Z,8.10
2022-11-05T23:51:17.693Z,8.10
2022-11-05T23:53:44.384Z,8.10
2022-11-05T23:56:14.527Z,8.00
2022-11-05T23:58:42.069Z,7.90
